»·PEaware :: ASA935 KGEG-KSEA

ASA935 :: KGEG-KSEA

FLIGHT INFORMATION

Flight Status: Arrived
Operator:
Alaska Airlines
More flights by this operator :: More flights under this callsign
Pilot: Michael S. (20314)
Aircraft: AIRBUS A321
(A321)
More flights by this aircraft type
Origin: KGEG Spokane Intl
United States
Destination: KSEA Seattle-Tacoma Intl
United States
More flights between these airports :: More routes between these airports
Route: GEG6 GEG GLASR1
File this flight plan on PilotEdge
Remarks: RMK / SIMBRIEF
Altitude:
(Current/Filed)
32,000ft
Speed:
(Current/Filed)
441kts
Departed: 28-Dec-21 01:56 PM
Arrived: 28-Dec-21 02:47 PM
Distance/Time
Traveled:
194nm/0:51
Distance/Time
To Go:
Arrived

Flight Plot

Page will automatically refresh every two minutes.

Flight plan parsing failed; only flown route is shown


Map Options




Map Legend


Flown Route
Filed Route
Departure Airport
Arrival Airport
Navaid (VOR, NDB)
Fix

Horizontal Profiles

Position Reports

Time Latitude Longitude Heading Altitude Ground
Speed
28-Dec-21 13:22 47.623325 -117.539265 0 2392ft 0kts
28-Dec-21 13:23 47.623325 -117.539265 0 2392ft 0kts
28-Dec-21 13:24 47.623325 -117.539265 0 2392ft 0kts
28-Dec-21 13:25 47.623325 -117.539265 0 2392ft 0kts
28-Dec-21 13:26 47.623325 -117.539265 0 2392ft 0kts
28-Dec-21 13:27 47.623325 -117.539265 0 2392ft 0kts
28-Dec-21 13:28 47.623325 -117.539265 0 2392ft 0kts
28-Dec-21 13:29 47.623325 -117.539265 0 2392ft 0kts
28-Dec-21 13:30 47.623325 -117.539265 0 2392ft 0kts
28-Dec-21 13:31 47.623325 -117.539265 0 2392ft 0kts
28-Dec-21 13:32 47.623325 -117.539265 0 2392ft 0kts
28-Dec-21 13:33 47.623325 -117.539265 0 2392ft 0kts
28-Dec-21 13:34 47.623325 -117.539265 0 2392ft 0kts
28-Dec-21 13:35 47.623325 -117.539265 0 2392ft 0kts
28-Dec-21 13:36 47.623325 -117.539265 0 2392ft 0kts
28-Dec-21 13:37 47.623325 -117.539265 0 2392ft 0kts
28-Dec-21 13:38 47.623325 -117.539265 0 2392ft 0kts
28-Dec-21 13:39 47.623325 -117.539265 0 2392ft 0kts
28-Dec-21 13:40 47.623325 -117.539265 0 2392ft 0kts
28-Dec-21 13:41 47.623325 -117.539265 0 2392ft 0kts
28-Dec-21 13:42 47.623324 -117.539266 353 2392ft 0kts
28-Dec-21 13:43 47.622843 -117.539469 36 2392ft 2kts
28-Dec-21 13:44 47.622623 -117.540140 92 2392ft 1kts
28-Dec-21 13:45 47.622624 -117.540180 90 2392ft 0kts
28-Dec-21 13:46 47.622624 -117.540180 90 2392ft 0kts
28-Dec-21 13:47 47.622642 -117.538292 104 2392ft 6kts
28-Dec-21 13:48 47.622918 -117.534837 45 2392ft 13kts
28-Dec-21 13:49 47.625934 -117.530327 44 2392ft 16kts
28-Dec-21 13:50 47.629392 -117.525081 45 2392ft 18kts
28-Dec-21 13:51 47.632548 -117.520739 89 2392ft 8kts
28-Dec-21 13:52 47.631947 -117.519542 134 2392ft 0kts
28-Dec-21 13:53 47.631947 -117.519542 134 2392ft 0kts
28-Dec-21 13:54 47.631403 -117.518730 135 2392ft 8kts
28-Dec-21 13:55 47.618070 -117.538238 226 2436ft 169kts
28-Dec-21 13:56 47.587126 -117.586207 225 4729ft 159kts
28-Dec-21 13:57 47.553070 -117.641236 243 5778ft 207kts
28-Dec-21 13:58 47.562850 -117.736896 279 7210ft 265kts
28-Dec-21 13:59 47.574676 -117.844915 279 10211ft 268kts
28-Dec-21 14:00 47.586993 -117.964765 281 11588ft 326kts
28-Dec-21 14:01 47.600549 -118.099490 282 14123ft 336kts
28-Dec-21 14:02 47.614351 -118.238386 283 16414ft 347kts
28-Dec-21 14:03 47.628398 -118.381784 283 18458ft 358kts
28-Dec-21 14:04 47.642679 -118.529890 284 20309ft 370kts
28-Dec-21 14:05 47.657273 -118.683255 283 21992ft 381kts
28-Dec-21 14:06 47.672071 -118.841470 284 23533ft 393kts
28-Dec-21 14:07 47.687039 -119.003796 284 25011ft 402kts
28-Dec-21 14:08 47.702329 -119.172073 285 26447ft 410kts
28-Dec-21 14:09 47.717339 -119.340354 285 28141ft 407kts
28-Dec-21 14:10 47.731726 -119.505013 285 29778ft 401kts
28-Dec-21 14:11 47.744752 -119.668697 284 31106ft 400kts
28-Dec-21 14:12 47.757551 -119.833500 284 31865ft 408kts
28-Dec-21 14:13 47.770459 -120.002569 284 31858ft 412kts
28-Dec-21 14:14 47.783134 -120.171815 284 31857ft 412kts
28-Dec-21 14:15 47.795559 -120.340640 284 31857ft 412kts
28-Dec-21 14:16 47.807530 -120.507728 284 31180ft 396kts
28-Dec-21 14:17 47.818892 -120.667890 283 28802ft 389kts
28-Dec-21 14:18 47.830165 -120.830397 282 25536ft 403kts
28-Dec-21 14:19 47.841449 -120.997370 282 22416ft 404kts
28-Dec-21 14:20 47.852120 -121.159671 282 20000ft 388kts
28-Dec-21 14:21 47.862311 -121.316795 281 17548ft 375kts
28-Dec-21 14:22 47.871945 -121.467958 280 15168ft 362kts
28-Dec-21 14:23 47.880940 -121.613566 280 13389ft 335kts
28-Dec-21 14:24 47.862744 -121.736890 227 12355ft 322kts
28-Dec-21 14:25 47.796159 -121.825802 226 12044ft 321kts
28-Dec-21 14:26 47.730180 -121.914846 226 12039ft 322kts
28-Dec-21 14:27 47.663774 -122.004207 225 12043ft 322kts
28-Dec-21 14:28 47.598984 -122.091044 226 11474ft 298kts
28-Dec-21 14:29 47.531537 -122.150511 179 10150ft 291kts
28-Dec-21 14:30 47.453052 -122.144377 178 8896ft 276kts
28-Dec-21 14:31 47.378002 -122.139129 178 7495ft 269kts
28-Dec-21 14:32 47.306497 -122.134583 178 6502ft 246kts
28-Dec-21 14:33 47.242298 -122.130750 177 5586ft 227kts
28-Dec-21 14:34 47.190359 -122.128056 178 5001ft 205kts
28-Dec-21 14:35 47.150715 -122.125927 178 4973ft 185kts
28-Dec-21 14:36 47.108117 -122.150650 269 4977ft 186kts
28-Dec-21 14:37 47.113851 -122.232489 276 5007ft 187kts
28-Dec-21 14:38 47.135976 -122.300600 341 5034ft 189kts
28-Dec-21 14:39 47.181457 -122.309723 0 4904ft 189kts
28-Dec-21 14:40 47.223446 -122.309692 0 4191ft 186kts
28-Dec-21 14:41 47.286350 -122.309275 0 3114ft 181kts
28-Dec-21 14:42 47.329847 -122.308899 1 2268ft 134kts
28-Dec-21 14:43 47.367036 -122.308567 1 1630ft 132kts
28-Dec-21 14:44 47.403514 -122.308337 1 969ft 130kts
28-Dec-21 14:45 47.439042 -122.307987 359 443ft 112kts
28-Dec-21 14:46 47.450049 -122.307260 90 442ft 0kts

Navigation Log

Ident Type
Flight plan parsing failed, navigation log unavailable